Clifton, Idaho
Current Conditions -  °F | °C
As of 12:51 PM on Thursday 30 Oct 2014 (Local Time) from KLGU Reporting Station
Clear Clear  
Wind Chill: 57°   Ceiling: Unl
Heat Index: 57°   Visibility: 10mi
Dew Point: 32°   Wind: 6mph
Humidity: 39%   Direction: 340°NNW
Pressure: 30.26"   Gusts: NA
Location:  42.19°N, 112.01°W
Report Text: KLGU 301851Z AUTO 34005KT 10SM CLR 14/00 A3026 RMK AO2 SLP240 T01390000 TSNO
Loading
Personal Weather Stations






























Interactive Weather Map New forecast layout! Learn more

10-Day Weather Forecast

Advertisements
Track Severe Weather on mobile